createdAt,value
2022-08-12T00:02:04.309Z,101754.25
2022-08-12T00:04:59.929Z,101751.72
2022-08-12T00:08:04.640Z,101758.03
2022-08-12T00:11:08.823Z,101756.19
2022-08-12T00:14:16.967Z,101754.41
2022-08-12T00:17:23.253Z,101753.72
2022-08-12T00:20:29.854Z,101748.44
2022-08-12T00:23:34.240Z,101762.00
2022-08-12T00:26:38.902Z,101759.56
2022-08-12T00:29:47.330Z,101759.88
2022-08-12T00:32:54.811Z,101760.94
2022-08-12T00:36:02.890Z,101767.28
2022-08-12T00:39:07.540Z,101758.56
2022-08-12T00:42:11.831Z,101763.19
2022-08-12T00:44:59.031Z,101765.13
2022-08-12T00:47:46.164Z,101759.91
2022-08-12T00:50:33.639Z,101768.81
2022-08-12T00:53:22.796Z,101763.72
2022-08-12T00:56:09.751Z,101765.66
2022-08-12T00:58:58.305Z,101763.97
2022-08-12T01:02:02.019Z,101762.25
2022-08-12T01:05:14.279Z,101762.53
2022-08-12T01:08:18.875Z,101762.72
2022-08-12T01:11:24.933Z,101751.34
2022-08-12T01:14:12.547Z,101760.28
2022-08-12T01:17:00.834Z,101756.72
2022-08-12T01:19:48.798Z,101760.34
2022-08-12T01:22:42.360Z,101762.44
2022-08-12T01:25:38.488Z,101755.06
2022-08-12T01:28:45.307Z,101759.78
2022-08-12T01:31:32.873Z,101752.88
2022-08-12T01:34:35.526Z,101762.09
2022-08-12T01:37:26.618Z,101763.13
2022-08-12T01:40:33.932Z,101755.25
2022-08-12T01:43:26.955Z,101762.44
2022-08-12T01:46:27.140Z,101767.88
2022-08-12T01:49:43.697Z,101763.56
2022-08-12T01:52:38.743Z,101758.13
2022-08-12T01:55:31.427Z,101764.53
2022-08-12T01:58:28.947Z,101765.69
2022-08-12T02:01:15.269Z,101764.94
2022-08-12T02:04:32.215Z,101762.47
2022-08-12T02:07:48.454Z,101762.47
2022-08-12T02:11:03.566Z,101760.03
2022-08-12T02:14:12.814Z,101752.97
2022-08-12T02:17:55.351Z,101754.00
2022-08-12T02:20:51.810Z,101763.84
2022-08-12T02:23:41.869Z,101756.94
2022-08-12T02:26:31.712Z,101758.84
2022-08-12T02:29:20.150Z,101762.41
2022-08-12T02:32:08.477Z,101763.44
2022-08-12T02:34:57.226Z,101751.94
2022-08-12T02:37:45.597Z,101754.34
2022-08-12T02:40:33.046Z,101756.09
2022-08-12T02:43:27.952Z,101759.72
2022-08-12T02:46:19.524Z,101753.63
2022-08-12T02:49:11.794Z,101758.81
2022-08-12T02:52:01.147Z,101755.28
2022-08-12T02:54:52.861Z,101755.34
2022-08-12T02:57:41.270Z,101758.16
2022-08-12T03:00:29.131Z,101764.44
2022-08-12T03:03:20.474Z,101760.09
2022-08-12T03:06:10.775Z,101750.53
2022-08-12T03:09:00.875Z,101750.50
2022-08-12T03:11:53.298Z,101751.44
2022-08-12T03:14:43.904Z,101753.25
2022-08-12T03:17:36.020Z,101750.69
2022-08-12T03:20:28.413Z,101764.03
2022-08-12T03:23:19.423Z,101758.88
2022-08-12T03:26:16.425Z,101759.03
2022-08-12T03:29:06.887Z,101766.16
2022-08-12T03:31:59.955Z,101766.28
2022-08-12T03:34:51.163Z,101761.97
2022-08-12T03:37:42.735Z,101758.47
2022-08-12T03:40:49.934Z,101750.72
2022-08-12T03:44:04.181Z,101766.66
2022-08-12T03:47:15.826Z,101771.19
2022-08-12T03:50:21.077Z,101763.25
2022-08-12T03:53:29.653Z,101764.06
2022-08-12T03:56:34.958Z,101771.13
2022-08-12T03:59:39.202Z,101780.91
2022-08-12T04:02:27.361Z,101777.19
2022-08-12T04:05:15.835Z,101774.50
2022-08-12T04:08:10.858Z,101770.00
2022-08-12T04:11:15.149Z,101770.81
2022-08-12T04:14:08.729Z,101771.59
2022-08-12T04:16:58.269Z,101776.03
2022-08-12T04:19:46.552Z,101784.03
2022-08-12T04:22:34.140Z,101775.94
2022-08-12T04:25:26.387Z,101781.19
2022-08-12T04:28:14.153Z,101778.38
2022-08-12T04:31:01.432Z,101774.78
2022-08-12T04:33:48.155Z,101784.25
2022-08-12T04:36:36.252Z,101775.78
2022-08-12T04:39:24.128Z,101780.34
2022-08-12T04:42:12.664Z,101776.28
2022-08-12T04:44:59.577Z,101776.56
2022-08-12T04:47:47.000Z,101775.34
2022-08-12T04:50:36.911Z,101779.63
2022-08-12T04:53:24.989Z,101756.72
2022-08-12T04:56:23.774Z,101773.44
2022-08-12T04:59:12.872Z,101772.56
2022-08-12T05:02:02.875Z,101776.75
2022-08-12T05:05:00.573Z,101773.84
2022-08-12T05:07:54.061Z,101786.84
2022-08-12T05:10:42.882Z,101784.59
2022-08-12T05:13:35.066Z,101775.00
2022-08-12T05:16:25.949Z,101784.06
2022-08-12T05:19:21.105Z,101784.22
2022-08-12T05:22:09.632Z,101784.63
2022-08-12T05:24:56.282Z,101782.34
2022-08-12T05:27:58.081Z,101774.50
2022-08-12T05:30:46.907Z,101767.00
2022-08-12T05:33:37.986Z,101765.13
2022-08-12T05:36:24.644Z,101764.81
2022-08-12T05:39:11.638Z,101772.72
2022-08-12T05:41:58.624Z,101781.63
2022-08-12T05:44:45.474Z,101783.75
2022-08-12T05:47:53.820Z,101779.88
2022-08-12T05:50:39.826Z,101783.84
2022-08-12T05:53:26.437Z,101774.88
2022-08-12T05:56:25.539Z,101784.94
2022-08-12T05:59:14.066Z,101781.25
2022-08-12T06:02:12.302Z,101781.38
2022-08-12T06:05:00.475Z,101785.72
2022-08-12T06:08:01.505Z,101779.56
2022-08-12T06:10:50.420Z,101780.38
2022-08-12T06:13:53.751Z,101780.97
2022-08-12T06:16:41.240Z,101780.97
2022-08-12T06:20:22.754Z,101784.88
2022-08-12T06:22:39.885Z,101782.69
2022-08-12T06:25:29.309Z,101789.84
2022-08-12T06:28:21.304Z,101781.94
2022-08-12T06:31:25.343Z,101787.88
2022-08-12T06:35:26.804Z,101789.84
2022-08-12T06:37:21.714Z,101787.69
2022-08-12T06:40:17.892Z,101792.19
2022-08-12T06:43:07.191Z,101785.81
2022-08-12T06:45:58.776Z,101790.50
2022-08-12T06:48:45.648Z,101784.34
2022-08-12T06:51:38.584Z,101775.41
2022-08-12T06:54:31.946Z,101779.31
2022-08-12T06:58:05.862Z,101777.97
2022-08-12T07:00:38.229Z,101780.72
2022-08-12T07:03:29.769Z,101779.34
2022-08-12T07:06:16.860Z,101777.94
2022-08-12T07:09:06.655Z,101779.69
2022-08-12T07:11:53.228Z,101783.00
2022-08-12T07:14:42.898Z,101780.97
2022-08-12T07:17:38.264Z,101776.38
2022-08-12T07:20:51.164Z,101767.31
2022-08-12T07:23:41.150Z,101770.34
2022-08-12T07:26:29.929Z,101767.50
2022-08-12T07:29:17.965Z,101769.34
2022-08-12T07:32:06.194Z,101781.38
2022-08-12T07:34:56.019Z,101779.44
2022-08-12T07:37:44.823Z,101774.06
2022-08-12T07:40:32.800Z,101776.72
2022-08-12T07:43:21.430Z,101776.78
2022-08-12T07:46:12.037Z,101779.25
2022-08-12T07:49:02.216Z,101771.34
2022-08-12T07:51:50.148Z,101775.41
2022-08-12T07:54:38.429Z,101784.88
2022-08-12T07:57:25.284Z,101778.56
2022-08-12T08:00:14.326Z,101778.84
2022-08-12T08:03:02.950Z,101771.66
2022-08-12T08:05:50.138Z,101770.63
2022-08-12T08:08:38.759Z,101771.09
2022-08-12T08:11:44.046Z,101773.31
2022-08-12T08:14:31.843Z,101769.03
2022-08-12T08:17:18.817Z,101766.63
2022-08-12T08:20:06.431Z,101758.00
2022-08-12T08:22:53.218Z,101763.47
2022-08-12T08:25:41.518Z,101761.75
2022-08-12T08:28:27.896Z,101761.50
2022-08-12T08:31:15.137Z,101750.91
2022-08-12T08:34:33.818Z,101755.09
2022-08-12T08:37:10.769Z,101753.31
2022-08-12T08:40:23.332Z,101755.75
2022-08-12T08:43:10.832Z,101764.06
2022-08-12T08:45:58.391Z,101761.22
2022-08-12T08:48:45.152Z,101752.75
2022-08-12T08:51:34.230Z,101758.75
2022-08-12T08:54:21.061Z,101754.53
2022-08-12T08:57:09.459Z,101754.81
2022-08-12T08:59:57.279Z,101753.41
2022-08-12T09:02:49.495Z,101760.53
2022-08-12T09:06:02.849Z,101738.09
2022-08-12T09:08:50.222Z,101739.75
2022-08-12T09:12:10.926Z,101744.34
2022-08-12T09:15:00.331Z,101743.16
2022-08-12T09:17:54.693Z,101750.56
2022-08-12T09:20:42.960Z,101749.09
2022-08-12T09:23:58.770Z,101740.22
2022-08-12T09:26:46.420Z,101736.19
2022-08-12T09:30:11.927Z,101742.06
2022-08-12T09:33:04.120Z,101739.53
2022-08-12T09:36:03.043Z,101744.72
2022-08-12T09:38:59.220Z,101742.50
2022-08-12T09:42:39.128Z,101742.31
2022-08-12T09:45:24.483Z,101739.72
2022-08-12T09:48:34.967Z,101737.97
2022-08-12T09:51:23.220Z,101734.78
2022-08-12T09:54:32.887Z,101738.94
2022-08-12T09:58:45.671Z,101731.19
2022-08-12T10:00:37.465Z,101726.03
2022-08-12T10:03:36.258Z,101715.34
2022-08-12T10:06:55.200Z,101707.56
2022-08-12T10:09:57.316Z,101705.03
2022-08-12T10:13:07.122Z,101702.59
2022-08-12T10:16:02.205Z,101696.13
2022-08-12T10:18:54.745Z,101690.69
2022-08-12T10:21:42.252Z,101666.03
2022-08-12T10:24:29.414Z,101694.59
2022-08-12T10:28:04.025Z,101691.72
2022-08-12T10:30:44.071Z,101694.84
2022-08-12T10:33:43.984Z,101690.13
2022-08-12T10:36:44.313Z,101678.66
2022-08-12T10:40:02.149Z,101678.53
2022-08-12T10:43:00.628Z,101665.75
2022-08-12T10:45:49.962Z,101665.91
2022-08-12T10:48:39.107Z,101662.34
2022-08-12T10:52:03.117Z,101661.19
2022-08-12T10:54:43.710Z,101650.84
2022-08-12T10:58:14.859Z,101661.19
2022-08-12T11:00:45.287Z,101658.16
2022-08-12T11:04:22.848Z,101669.66
2022-08-12T11:07:10.017Z,101656.84
2022-08-12T11:10:01.831Z,101646.53
2022-08-12T11:12:58.579Z,101643.53
2022-08-12T11:16:19.174Z,101645.84
2022-08-12T11:18:55.309Z,101651.41
2022-08-12T11:21:57.438Z,101638.63
2022-08-12T11:24:51.497Z,101633.59
2022-08-12T11:27:43.773Z,101636.09
2022-08-12T11:30:32.498Z,101634.94
2022-08-12T11:34:03.535Z,101629.59
2022-08-12T11:36:26.352Z,101623.31
2022-08-12T11:39:12.940Z,101624.34
2022-08-12T11:42:00.312Z,101618.97
2022-08-12T11:44:48.352Z,101612.94
2022-08-12T11:47:35.097Z,101621.97
2022-08-12T11:50:32.113Z,101611.34
2022-08-12T11:53:57.778Z,101612.34
2022-08-12T11:56:25.770Z,101607.66
2022-08-12T12:02:33.498Z,101602.25
2022-08-12T12:05:20.687Z,101600.81
2022-08-12T12:08:41.775Z,101598.16
2022-08-12T12:11:28.808Z,101589.91
2022-08-12T12:14:38.104Z,101593.66
2022-08-12T12:17:25.934Z,101588.50
2022-08-12T12:20:14.434Z,101593.91
2022-08-12T12:23:00.723Z,101597.19
2022-08-12T12:26:07.187Z,101594.16
2022-08-12T12:28:54.931Z,101587.75
2022-08-12T12:32:10.775Z,101586.91
2022-08-12T12:35:13.873Z,101581.13
2022-08-12T12:38:04.463Z,101580.63
2022-08-12T12:40:54.718Z,101578.84
2022-08-12T12:43:43.334Z,101580.72
2022-08-12T12:46:34.148Z,101579.41
2022-08-12T12:49:20.836Z,101575.09
2022-08-12T12:52:19.285Z,101573.69
2022-08-12T12:55:11.135Z,101569.72
2022-08-12T12:58:04.909Z,101574.59
2022-08-12T13:00:54.012Z,101578.47
2022-08-12T13:03:49.099Z,101572.47
2022-08-12T13:06:37.620Z,101579.34
2022-08-12T13:09:26.010Z,101569.47
2022-08-12T13:12:24.373Z,101567.03
2022-08-12T13:15:43.316Z,101567.53
2022-08-12T13:18:28.717Z,101570.00
2022-08-12T13:21:32.932Z,101567.78
2022-08-12T13:24:21.183Z,101580.44
2022-08-12T13:27:07.912Z,101569.59
2022-08-12T13:29:58.119Z,101567.78
2022-08-12T13:32:57.281Z,101559.56
2022-08-12T13:36:06.426Z,101555.69
2022-08-12T13:38:54.516Z,101557.94
2022-08-12T13:41:41.407Z,101552.13
2022-08-12T13:44:28.351Z,101553.13
2022-08-12T13:47:19.578Z,101553.06
2022-08-12T13:50:09.719Z,101557.53
2022-08-12T13:52:57.329Z,101545.84
2022-08-12T13:55:49.840Z,101545.31
2022-08-12T13:58:49.337Z,101546.41
2022-08-12T14:01:40.576Z,101543.53
2022-08-12T14:04:32.540Z,101546.19
2022-08-12T14:07:19.623Z,101537.31
2022-08-12T14:10:28.370Z,101535.28
2022-08-12T14:14:03.169Z,101530.91
2022-08-12T14:16:37.969Z,101536.88
2022-08-12T14:19:48.799Z,101534.94
2022-08-12T14:22:39.945Z,101530.59
2022-08-12T14:25:36.744Z,101531.75
2022-08-12T14:28:31.197Z,101529.69
2022-08-12T14:31:19.270Z,101527.69
2022-08-12T14:34:08.198Z,101529.72
2022-08-12T14:36:56.264Z,101524.50
2022-08-12T14:39:46.991Z,101514.91
2022-08-12T14:42:37.127Z,101524.47
2022-08-12T14:45:44.957Z,101519.69
2022-08-12T14:48:31.458Z,101525.50
2022-08-12T14:52:42.599Z,101520.50
2022-08-12T14:57:57.279Z,101518.84
2022-08-12T15:01:00.521Z,101513.13
2022-08-12T15:03:56.828Z,101505.59
2022-08-12T15:06:52.486Z,101489.81
2022-08-12T15:09:40.860Z,101490.59
2022-08-12T15:12:27.680Z,101487.00
2022-08-12T15:15:17.499Z,101491.41
2022-08-12T15:18:07.336Z,101488.47
2022-08-12T15:20:56.569Z,101494.63
2022-08-12T15:23:45.672Z,101498.72
2022-08-12T15:26:46.878Z,101496.31
2022-08-12T15:29:38.957Z,101492.28
2022-08-12T15:32:31.963Z,101487.31
2022-08-12T15:35:19.584Z,101492.31
2022-08-12T15:38:12.014Z,101479.69
2022-08-12T15:41:00.834Z,101478.81
2022-08-12T15:44:16.477Z,101482.34
2022-08-12T15:46:55.548Z,101482.72
2022-08-12T15:49:59.807Z,101476.69
2022-08-12T15:52:52.745Z,101495.19
2022-08-12T15:55:46.227Z,101482.41
2022-08-12T15:58:37.021Z,101476.50
2022-08-12T16:01:35.031Z,101478.38
2022-08-12T16:04:22.200Z,101471.50
2022-08-12T16:07:10.118Z,101476.91
2022-08-12T16:10:06.655Z,101479.16
2022-08-12T16:12:57.202Z,101482.31
2022-08-12T16:15:51.121Z,101479.19
2022-08-12T16:18:52.122Z,101475.44
2022-08-12T16:21:51.677Z,101472.03
2022-08-12T16:24:44.803Z,101471.16
2022-08-12T16:27:38.350Z,101469.63
2022-08-12T16:30:32.734Z,101463.19
2022-08-12T16:33:20.130Z,101456.25
2022-08-12T16:36:18.872Z,101466.97
2022-08-12T16:39:06.142Z,101463.31
2022-08-12T16:41:53.514Z,101468.63
2022-08-12T16:44:45.726Z,101462.34
2022-08-12T16:47:58.634Z,101454.41
2022-08-12T16:50:49.199Z,101460.50
2022-08-12T16:53:44.730Z,101456.19
2022-08-12T16:56:33.836Z,101451.75
2022-08-12T16:59:30.734Z,101449.75
2022-08-12T17:02:35.505Z,101438.72
2022-08-12T17:05:25.183Z,101444.28
2022-08-12T17:08:21.728Z,101447.41
2022-08-12T17:11:18.322Z,101433.78
2022-08-12T17:14:08.280Z,101442.00
2022-08-12T17:16:56.095Z,101428.81
2022-08-12T17:20:29.671Z,101428.19
2022-08-12T17:22:56.554Z,101435.41
2022-08-12T17:25:45.375Z,101433.50
2022-08-12T17:28:37.260Z,101431.63
2022-08-12T17:31:59.596Z,101426.88
2022-08-12T17:34:49.231Z,101419.50
2022-08-12T17:37:36.100Z,101418.19
2022-08-12T17:40:35.852Z,101424.19
2022-08-12T17:43:52.148Z,101423.38
2022-08-12T17:46:33.104Z,101424.50
2022-08-12T17:50:02.191Z,101422.06
2022-08-12T17:52:33.324Z,101429.03
2022-08-12T17:55:43.760Z,101429.44
2022-08-12T17:58:35.769Z,101420.72
2022-08-12T18:01:25.504Z,101423.38
2022-08-12T18:04:23.156Z,101429.00
2022-08-12T18:07:23.615Z,101433.09
2022-08-12T18:10:12.800Z,101425.22
2022-08-12T18:13:02.328Z,101428.78
2022-08-12T18:16:06.084Z,101430.59
2022-08-12T18:18:57.178Z,101425.28
2022-08-12T18:22:01.150Z,101420.84
2022-08-12T18:24:48.959Z,101419.56
2022-08-12T18:27:46.769Z,101415.81
2022-08-12T18:30:34.434Z,101434.63
2022-08-12T18:33:25.031Z,101438.59
2022-08-12T18:36:13.140Z,101439.88
2022-08-12T18:39:05.206Z,101441.88
2022-08-12T18:41:52.459Z,101448.19
2022-08-12T18:44:40.553Z,101449.81
2022-08-12T18:47:46.774Z,101450.38
2022-08-12T18:50:49.533Z,101452.78
2022-08-12T18:54:07.020Z,101454.59
2022-08-12T18:56:46.729Z,101438.84
2022-08-12T19:00:02.495Z,101456.16
2022-08-12T19:02:46.692Z,101456.16
2022-08-12T19:05:54.435Z,101460.59
2022-08-12T19:08:42.414Z,101458.63
2022-08-12T19:11:53.037Z,101453.78
2022-08-12T19:14:43.480Z,101459.03
2022-08-12T19:17:47.485Z,101465.06
2022-08-12T19:20:39.536Z,101463.84
2022-08-12T19:23:35.287Z,101457.22
2022-08-12T19:26:26.993Z,101464.22
2022-08-12T19:29:18.322Z,101462.16
2022-08-12T19:32:09.762Z,101463.66
2022-08-12T19:36:00.848Z,101463.84
2022-08-12T19:38:06.834Z,101467.06
2022-08-12T19:40:56.358Z,101462.38
2022-08-12T19:44:03.393Z,101461.16
2022-08-12T19:46:54.423Z,101463.72
2022-08-12T19:49:50.130Z,101465.09
2022-08-12T19:52:37.092Z,101465.59
2022-08-12T19:55:29.260Z,101462.53
2022-08-12T19:58:28.343Z,101451.69
2022-08-12T20:01:25.807Z,101430.94
2022-08-12T20:04:22.647Z,101462.66
2022-08-12T20:07:23.885Z,101472.34
2022-08-12T20:10:16.525Z,101480.06
2022-08-12T20:13:18.143Z,101474.38
2022-08-12T20:16:06.419Z,101476.56
2022-08-12T20:19:13.076Z,101463.84
2022-08-12T20:22:02.556Z,101476.50
2022-08-12T20:24:51.178Z,101478.44
2022-08-12T20:28:04.218Z,101486.59
2022-08-12T20:30:53.595Z,101483.41
2022-08-12T20:33:55.931Z,101481.69
2022-08-12T20:36:45.391Z,101486.56
2022-08-12T20:39:53.471Z,101475.81
2022-08-12T20:42:40.461Z,101483.47
2022-08-12T20:45:40.011Z,101486.16
2022-08-12T20:48:37.827Z,101478.91
2022-08-12T20:51:24.675Z,101474.84
2022-08-12T20:54:14.483Z,101475.56
2022-08-12T20:57:09.797Z,101481.81
2022-08-12T20:59:58.223Z,101477.84
2022-08-12T21:02:50.180Z,101482.81
2022-08-12T21:06:12.915Z,101483.28
2022-08-12T21:09:01.539Z,101489.88
2022-08-12T21:11:50.599Z,101491.72
2022-08-12T21:14:39.640Z,101484.13
2022-08-12T21:18:08.093Z,101488.16
2022-08-12T21:20:49.707Z,101492.19
2022-08-12T21:23:38.979Z,101495.06
2022-08-12T21:26:26.509Z,101508.00
2022-08-12T21:29:16.197Z,101499.41
2022-08-12T21:32:39.410Z,101495.19
2022-08-12T21:35:19.208Z,101498.91
2022-08-12T21:38:05.964Z,101499.19
2022-08-12T21:40:54.137Z,101501.94
2022-08-12T21:43:45.184Z,101501.44
2022-08-12T21:46:35.694Z,101493.69
2022-08-12T21:49:55.103Z,101501.31
2022-08-12T21:52:34.980Z,101502.63
2022-08-12T21:55:22.603Z,101490.06
2022-08-12T21:58:16.706Z,101494.41
2022-08-12T22:01:03.663Z,101495.78
2022-08-12T22:04:19.742Z,101501.41
2022-08-12T22:07:08.366Z,101502.78
2022-08-12T22:09:58.629Z,101504.91
2022-08-12T22:12:45.867Z,101506.47
2022-08-12T22:15:32.746Z,101503.97
2022-08-12T22:18:22.379Z,101501.78
2022-08-12T22:21:15.576Z,101511.56
2022-08-12T22:24:05.826Z,101512.66
2022-08-12T22:26:54.102Z,101511.03
2022-08-12T22:29:58.278Z,101516.59
2022-08-12T22:32:49.795Z,101511.22
2022-08-12T22:35:47.539Z,101515.19
2022-08-12T22:38:46.958Z,101511.88
2022-08-12T22:41:56.785Z,101514.56
2022-08-12T22:45:02.982Z,101512.81
2022-08-12T22:47:55.189Z,101511.09
2022-08-12T22:50:42.519Z,101505.72
2022-08-12T22:53:36.503Z,101512.13
2022-08-12T22:56:30.848Z,101508.03
2022-08-12T22:59:18.108Z,101501.09
2022-08-12T23:02:11.376Z,101501.59
2022-08-12T23:04:58.405Z,101505.03
2022-08-12T23:07:58.730Z,101507.78
2022-08-12T23:10:47.594Z,101506.25
2022-08-12T23:13:56.084Z,101502.06
2022-08-12T23:16:43.600Z,101507.59
2022-08-12T23:19:38.201Z,101509.25
2022-08-12T23:22:36.097Z,101502.06
2022-08-12T23:25:32.779Z,101499.31
2022-08-12T23:28:53.261Z,101500.25
2022-08-12T23:32:02.669Z,101495.13
2022-08-12T23:34:50.463Z,101496.47
2022-08-12T23:37:47.810Z,101497.66
2022-08-12T23:40:41.389Z,101504.97
2022-08-12T23:43:39.574Z,101497.09
2022-08-12T23:46:27.831Z,101506.38
2022-08-12T23:49:55.103Z,101506.59
2022-08-12T23:52:23.084Z,101494.66
2022-08-12T23:55:24.708Z,101500.31
2022-08-12T23:58:21.222Z,101501.41
